Dresden, Canada
Current Conditions -  °F | °C
As of 6:40 AM on Friday 31 Oct 2014 (Local Time) from CYCK Reporting Station
Light Rain Light Rain  
Wind Chill: 40°   Ceiling: 5500
Heat Index: 45°   Visibility: 9mi
Dew Point: 39°   Wind: 8mph
Humidity: 81%   Direction: 250°WSW
Pressure: 29.92"   Gusts: NA
Location:  42.58°N, 82.17°W
Report Text: CYCK 311040Z AUTO 25007KT 9SM -RA OVC055 07/04 A2992 RMK SLP136
Loading
Personal Weather Stations






























Interactive Weather Map
Tropical Storm Tracking
New forecast layout! Learn more

10-Day Weather Forecast

Advertisements
Track Severe Weather on mobile